ADDS METAR Data INFO
IDs: Format: Raw Decoded Include TAF

Data at: 2308 UTC 16 Jan 2018

KJGG 162255Z AUTO 00000KT 10SM CLR 03/M03 A3036 RMK AO1
KJGG 162235Z AUTO 00000KT 10SM CLR 04/M02 A3036 RMK AO1
KJGG 162215Z AUTO 00000KT 10SM CLR 06/M02 A3036 RMK AO1
KJGG 162155Z AUTO 00000KT 10SM CLR 07/M01 A3036 RMK AO1
KJGG 162135Z AUTO 00000KT 10SM CLR 08/M01 A3036 RMK AO1
KJGG 162115Z AUTO 00000KT 10SM CLR 09/00 A3037 RMK AO1
KJGG 162055Z AUTO 00000KT 10SM CLR 10/01 A3036 RMK AO1
KJGG 162035Z AUTO 00000KT 10SM CLR 10/01 A3036 RMK AO1
KJGG 162015Z AUTO 00000KT 10SM CLR 11/01 A3037 RMK AO1
KJGG 161955Z AUTO 00000KT 10SM CLR 11/01 A3037 RMK AO1
KJGG 161935Z AUTO 00000KT 10SM CLR 10/01 A3038 RMK AO1
KJGG 161915Z AUTO 00000KT 10SM CLR 09/01 A3038 RMK AO1
KJGG 161855Z AUTO 00000KT 10SM CLR 10/02 A3039 RMK AO1
KJGG 161835Z AUTO 00000KT 10SM CLR 09/02 A3040 RMK AO1
KJGG 161815Z AUTO 00000KT 10SM CLR 09/02 A3041 RMK AO1
KJGG 161755Z AUTO 00000KT 10SM CLR 09/02 A3042 RMK AO1
KJGG 161735Z AUTO 00000KT 10SM CLR 07/02 A3044 RMK AO1
KJGG 161715Z AUTO 00000KT 10SM CLR 07/02 A3046 RMK AO1
KJGG 161655Z AUTO 00000KT 10SM CLR 07/03 A3047 RMK AO1
KJGG 161635Z AUTO 00000KT 10SM SCT009 06/03 A3048 RMK AO1
KJGG 161615Z AUTO 00000KT 10SM BKN009 04/02 A3049 RMK AO1
KJGG 161555Z AUTO 00000KT 10SM BKN007 03/01 A3049 RMK AO1
KJGG 161535Z AUTO 00000KT 10SM OVC005 02/00 A3050 RMK AO1
KJGG 161515Z AUTO 00000KT 10SM OVC005 02/00 A3050 RMK AO1
KJGG 161455Z AUTO 00000KT 10SM OVC003 02/M01 A3049 RMK AO1
KJGG 161435Z AUTO 00000KT 10SM OVC003 01/M01 A3050 RMK AO1
KJGG 161415Z AUTO 00000KT 10SM OVC003 01/M01 A3050 RMK AO1
KJGG 161355Z AUTO 00000KT 7SM OVC003 01/M01 A3050 RMK AO1
KJGG 161335Z AUTO 00000KT 10SM OVC003 01/M02 A3049 RMK AO1
KJGG 161315Z AUTO 00000KT 4SM OVC003 00/M02 A3048 RMK AO1
KJGG 161255Z AUTO 00000KT 4SM OVC003 00/M02 A3049 RMK AO1
KJGG 161235Z AUTO 00000KT 3SM OVC003 00/M02 A3049 RMK AO1
KJGG 161215Z AUTO 00000KT 4SM OVC003 00/M02 A3049 RMK AO1
KJGG 161155Z AUTO 00000KT 5SM OVC003 00/M02 A3049 RMK AO1
KJGG 161135Z AUTO 00000KT 5SM OVC003 00/M02 A3049 RMK AO1
KJGG 161115Z AUTO 00000KT 2 1/2SM OVC003 00/M02 A3049 RMK AO1
KJGG 161055Z AUTO 00000KT 3SM OVC003 00/M02 A3049 RMK AO1
KJGG 161035Z AUTO 00000KT 3SM OVC003 00/M02 A3048 RMK AO1
KJGG 161015Z AUTO 00000KT 2 1/2SM OVC003 00/M02 A3049 RMK AO1 VIS 2V4
KJGG 160955Z AUTO 00000KT 3SM OVC003 00/M02 A3048 RMK AO1
KJGG 160935Z AUTO 00000KT 2SM OVC003 00/M02 A3047 RMK AO1
KJGG 160915Z AUTO 00000KT 2 1/2SM OVC003 00/M02 A3046 RMK AO1 VIS 1 1/2V4
KJGG 160855Z AUTO 00000KT 4SM OVC003 01/M02 A3046 RMK AO1
KJGG 160835Z AUTO 00000KT 5SM OVC003 00/M02 A3046 RMK AO1
KJGG 160815Z AUTO 00000KT 5SM OVC003 00/M02 A3046 RMK AO1
KJGG 160755Z AUTO 00000KT 7SM OVC003 00/M02 A3046 RMK AO1
KJGG 160735Z AUTO 00000KT 7SM OVC003 00/M02 A3046 RMK AO1
KJGG 160715Z AUTO 00000KT 7SM OVC003 01/M02 A3047 RMK AO1
KJGG 160655Z AUTO 00000KT 5SM OVC003 01/M02 A3046 RMK AO1
KJGG 160635Z AUTO 00000KT 7SM OVC003 01/M02 A3045 RMK AO1
KJGG 160615Z AUTO 00000KT 7SM OVC005 01/M03 A3045 RMK AO1
KJGG 160555Z AUTO 00000KT 10SM OVC005 01/M03 A3045 RMK AO1
KJGG 160535Z AUTO 00000KT 10SM OVC005 01/M02 A3047 RMK AO1
KJGG 160515Z AUTO 00000KT 10SM OVC007 01/M03 A3047 RMK AO1
KJGG 160455Z AUTO 00000KT 10SM OVC007 01/M03 A3048 RMK AO1
KJGG 160435Z AUTO 00000KT 10SM OVC009 01/M03 A3048 RMK AO1
KJGG 160415Z AUTO 00000KT 10SM OVC009 01/M03 A3049 RMK AO1
KJGG 160355Z AUTO 00000KT 10SM OVC009 01/M03 A3049 RMK AO1
KJGG 160335Z AUTO 00000KT 10SM OVC011 01/M03 A3049 RMK AO1
KJGG 160315Z AUTO 00000KT 10SM OVC011 01/M03 A3049 RMK AO1
KJGG 160255Z AUTO 00000KT 10SM OVC011 01/M03 A3049 RMK AO1
KJGG 160235Z AUTO 00000KT 10SM OVC009 01/M03 A3048 RMK AO1
KJGG 160215Z AUTO 00000KT 10SM OVC009 01/M03 A3049 RMK AO1
KJGG 160155Z AUTO 00000KT 10SM OVC011 01/M03 A3050 RMK AO1
KJGG 160135Z AUTO 00000KT 10SM OVC011 02/M03 A3050 RMK AO1
KJGG 160115Z AUTO 00000KT 10SM OVC011 02/M04 A3049 RMK AO1
KJGG 160055Z AUTO 00000KT 10SM OVC013 02/M04 A3050 RMK AO1
KJGG 160035Z AUTO 00000KT 10SM OVC013 02/M04 A3049 RMK AO1
KJGG 160015Z AUTO 00000KT 10SM OVC013 02/M04 A3050 RMK AO1
KJGG 152355Z AUTO 00000KT 10SM OVC013 02/M04 A3049 RMK AO1
KJGG 152335Z AUTO 00000KT 10SM OVC015 02/M04 A3048 RMK AO1
KJGG 152315Z AUTO 00000KT 10SM OVC015 01/M04 A3047 RMK AO1
KJGG 152255Z AUTO 00000KT 10SM BKN017 01/M05 A3047 RMK AO1
KJGG 152235Z AUTO 00000KT 10SM BKN017 02/M05 A3047 RMK AO1
KJGG 152215Z AUTO 00000KT 10SM BKN021 03/M04 A3048 RMK AO1
KJGG 152155Z AUTO 00000KT 10SM BKN023 05/M03 A3049 RMK AO1
KJGG 152135Z AUTO 00000KT 10SM CLR 06/M03 A3050 RMK AO1
KJGG 152115Z AUTO 00000KT 10SM CLR 06/M03 A3048 RMK AO1
KJGG 152055Z AUTO 00000KT 10SM CLR 07/M03 A3047 RMK AO1
KJGG 152035Z AUTO 00000KT 10SM CLR 07/M03 A3045 RMK AO1
KJGG 152015Z AUTO 00000KT 10SM CLR 07/M03 A3045 RMK AO1
KJGG 151955Z AUTO 00000KT 10SM CLR 07/M03 A3045 RMK AO1
KJGG 151935Z AUTO 00000KT 10SM CLR 06/M03 A3045 RMK AO1
KJGG 151915Z AUTO 00000KT 10SM CLR 05/M04 A3046 RMK AO1
KJGG 151855Z AUTO 35003KT 10SM SCT046 05/M04 A3046 RMK AO1
KJGG 151835Z AUTO 00000KT 10SM BKN046 04/M04 A3048 RMK AO1
KJGG 151815Z AUTO 33005KT 10SM BKN046 04/M05 A3048 RMK AO1
KJGG 151755Z AUTO 00000KT 10SM OVC046 04/M04 A3048 RMK AO1
KJGG 151735Z AUTO 34004KT 10SM BKN046 03/M05 A3050 RMK AO1
KJGG 151715Z AUTO 36005KT 10SM BKN044 03/M06 A3050 RMK AO1
KJGG 151655Z AUTO 35003KT 10SM BKN046 04/M05 A3052 RMK AO1
KJGG 151635Z AUTO 00000KT 10SM SCT017 03/M06 A3052 RMK AO1
KJGG 151615Z AUTO 00000KT 10SM BKN017 02/M06 A3054 RMK AO1
KJGG 151555Z AUTO 00000KT 10SM BKN017 BKN050 02/M06 A3055 RMK AO1
KJGG 151535Z AUTO 35003KT 10SM BKN017 02/M06 A3056 RMK AO1
KJGG 151515Z AUTO 00000KT 10SM SCT017 BKN049 02/M06 A3056 RMK AO1
KJGG 151455Z AUTO 00000KT 10SM BKN049 00/M06 A3056 RMK AO1
KJGG 151435Z AUTO 00000KT 10SM OVC049 M01/M07 A3057 RMK AO1
KJGG 151415Z AUTO 34006KT 10SM OVC047 M02/M08 A3057 RMK AO1
KJGG 151355Z AUTO 00000KT 10SM OVC045 M02/M08 A3056 RMK AO1
KJGG 151335Z AUTO 34005KT 10SM OVC047 M02/M08 A3055 RMK AO1
KJGG 151315Z AUTO 36003KT 10SM OVC047 M03/M08 A3055 RMK AO1
KJGG 151255Z AUTO 00000KT 10SM OVC047 M03/M08 A3056 RMK AO1
KJGG 151235Z AUTO 00000KT 10SM OVC045 M03/M09 A3055 RMK AO1
KJGG 151215Z AUTO 00000KT 10SM BKN045 M04/M09 A3053 RMK AO1
KJGG 151155Z AUTO 00000KT 10SM BKN045 M03/M09 A3053 RMK AO1
KJGG 151135Z AUTO 00000KT 10SM OVC045 M03/M09 A3053 RMK AO1
KJGG 151115Z AUTO 00000KT 10SM OVC045 M03/M09 A3052 RMK AO1